createdAt,value
2023-02-03T00:00:49.755Z,1017.16
2023-02-03T00:01:49.773Z,1017.13
2023-02-03T00:02:49.725Z,1017.10
2023-02-03T00:03:49.688Z,1017.14
2023-02-03T00:04:49.683Z,1017.09
2023-02-03T00:05:49.694Z,1017.02
2023-02-03T00:06:49.657Z,1017.02
2023-02-03T00:07:49.649Z,1016.99
2023-02-03T00:08:49.638Z,1016.93
2023-02-03T00:09:49.624Z,1016.89
2023-02-03T00:10:49.640Z,1016.86
2023-02-03T00:11:49.609Z,1016.82
2023-02-03T00:12:49.624Z,1016.86
2023-02-03T00:13:49.582Z,1016.81
2023-02-03T00:14:49.598Z,1016.74
2023-02-03T00:15:49.564Z,1016.81
2023-02-03T00:16:49.550Z,1016.76
2023-02-03T00:17:49.568Z,1016.75
2023-02-03T00:18:49.543Z,1016.68
2023-02-03T00:19:49.517Z,1016.68
2023-02-03T00:20:49.532Z,1016.58
2023-02-03T00:21:49.494Z,1016.64
2023-02-03T00:22:49.491Z,1016.59
2023-02-03T00:23:49.481Z,1016.55
2023-02-03T00:24:49.462Z,1016.54
2023-02-03T00:25:49.479Z,1016.51
2023-02-03T00:26:49.440Z,1016.50
2023-02-03T00:27:49.518Z,1016.55
2023-02-03T00:28:49.420Z,1016.49
2023-02-03T00:29:49.409Z,1016.44
2023-02-03T00:30:49.441Z,1016.34
2023-02-03T00:31:49.594Z,1016.33
2023-02-03T00:32:49.405Z,1016.30
2023-02-03T00:33:49.366Z,1016.32
2023-02-03T00:34:49.353Z,1016.35
2023-02-03T00:35:49.381Z,1016.26
2023-02-03T00:36:49.336Z,1016.29
2023-02-03T00:37:49.347Z,1016.22
2023-02-03T00:38:49.317Z,1016.24
2023-02-03T00:39:49.304Z,1016.18
2023-02-03T00:40:49.321Z,1016.17
2023-02-03T00:41:49.281Z,1016.07
2023-02-03T00:42:49.272Z,1016.05
2023-02-03T00:43:49.285Z,1015.92
2023-02-03T00:44:49.245Z,1015.91
2023-02-03T00:45:49.275Z,1015.90
2023-02-03T00:46:49.288Z,1015.89
2023-02-03T00:47:49.219Z,1015.92
2023-02-03T00:48:49.208Z,1015.91
2023-02-03T00:49:49.194Z,1015.91
2023-02-03T00:50:49.187Z,1015.91
2023-02-03T00:51:49.243Z,1015.95
2023-02-03T00:52:49.183Z,1016.00
2023-02-03T00:53:49.212Z,1016.00
2023-02-03T00:54:49.137Z,1015.96
2023-02-03T00:55:49.153Z,1015.94
2023-02-03T00:56:49.110Z,1015.95
2023-02-03T00:57:49.110Z,1015.98
2023-02-03T00:58:49.099Z,1016.03
2023-02-03T00:59:49.107Z,1015.97
2023-02-03T01:00:49.112Z,1016.05
2023-02-03T01:01:49.062Z,1015.94
2023-02-03T01:02:49.076Z,1015.93
2023-02-03T01:03:49.055Z,1015.91
2023-02-03T01:04:49.053Z,1015.85
2023-02-03T01:05:49.037Z,1015.89
2023-02-03T01:06:49.119Z,1015.83
2023-02-03T01:07:49.012Z,1015.84
2023-02-03T01:08:49.009Z,1015.82
2023-02-03T01:09:49.001Z,1015.79
2023-02-03T01:10:48.996Z,1015.73
2023-02-03T01:11:48.958Z,1015.74
2023-02-03T01:12:48.949Z,1015.78
2023-02-03T01:13:48.935Z,1015.73
2023-02-03T01:14:48.920Z,1015.77
2023-02-03T01:15:48.941Z,1015.76
2023-02-03T01:16:48.931Z,1015.81
2023-02-03T01:17:48.889Z,1015.79
2023-02-03T01:18:48.904Z,1015.80
2023-02-03T01:19:48.870Z,1015.78
2023-02-03T01:20:48.883Z,1015.76
2023-02-03T01:21:48.849Z,1015.75
2023-02-03T01:22:48.862Z,1015.64
2023-02-03T01:23:48.824Z,1015.61
2023-02-03T01:24:48.809Z,1015.52
2023-02-03T01:25:48.820Z,1015.53
2023-02-03T01:26:48.822Z,1015.56
2023-02-03T01:27:48.841Z,1015.50
2023-02-03T01:28:48.767Z,1015.56
2023-02-03T01:29:48.757Z,1015.48
2023-02-03T01:30:48.832Z,1015.49
2023-02-03T01:31:49.023Z,1015.46
2023-02-03T01:32:48.723Z,1015.38
2023-02-03T01:33:48.843Z,1015.33
2023-02-03T01:34:48.724Z,1015.32
2023-02-03T01:35:48.704Z,1015.27
2023-02-03T01:36:48.708Z,1015.30
2023-02-03T01:37:48.679Z,1015.36
2023-02-03T01:38:48.667Z,1015.36
2023-02-03T01:39:48.661Z,1015.31
2023-02-03T01:40:48.643Z,1015.38
2023-02-03T01:41:48.661Z,1015.31
2023-02-03T01:42:48.624Z,1015.30
2023-02-03T01:43:48.605Z,1015.28
2023-02-03T01:44:48.593Z,1015.22
2023-02-03T01:45:48.613Z,1015.14
2023-02-03T01:46:48.599Z,1015.12
2023-02-03T01:47:48.572Z,1015.13
2023-02-03T01:48:48.553Z,1015.01
2023-02-03T01:49:48.541Z,1014.99
2023-02-03T01:50:48.572Z,1015.01
2023-02-03T01:51:48.555Z,1014.88
2023-02-03T01:52:48.506Z,1014.88
2023-02-03T01:53:48.501Z,1014.92
2023-02-03T01:54:48.486Z,1014.82
2023-02-03T01:55:48.479Z,1014.85
2023-02-03T01:56:48.499Z,1014.83
2023-02-03T01:57:48.457Z,1014.84
2023-02-03T01:58:48.438Z,1014.82
2023-02-03T01:59:48.429Z,1014.83
2023-02-03T02:00:48.423Z,1014.82
2023-02-03T02:01:48.455Z,1014.73
2023-02-03T02:02:48.516Z,1014.87
2023-02-03T02:03:48.395Z,1014.79
2023-02-03T02:04:48.373Z,1014.78
2023-02-03T02:05:48.374Z,1014.74
2023-02-03T02:06:48.384Z,1014.77
2023-02-03T02:07:48.370Z,1014.77
2023-02-03T02:08:48.335Z,1014.67
2023-02-03T02:09:48.354Z,1014.72
2023-02-03T02:10:48.315Z,1014.61
2023-02-03T02:11:48.313Z,1014.56
2023-02-03T02:12:48.312Z,1014.51
2023-02-03T02:13:48.277Z,1014.50
2023-02-03T02:14:48.268Z,1014.43
2023-02-03T02:15:48.272Z,1014.43
2023-02-03T02:16:48.257Z,1014.32
2023-02-03T02:17:48.259Z,1014.31
2023-02-03T02:18:48.239Z,1014.25
2023-02-03T02:19:48.223Z,1014.32
2023-02-03T02:20:48.223Z,1014.25
2023-02-03T02:21:48.226Z,1014.26
2023-02-03T02:22:48.207Z,1014.19
2023-02-03T02:23:48.177Z,1014.18
2023-02-03T02:24:48.163Z,1014.16
2023-02-03T02:25:48.194Z,1014.05
2023-02-03T02:26:48.136Z,1014.04
2023-02-03T02:27:48.208Z,1013.93
2023-02-03T02:28:48.151Z,1013.91
2023-02-03T02:29:48.109Z,1013.82
2023-02-03T02:30:48.236Z,1013.80
2023-02-03T02:31:48.261Z,1013.77
2023-02-03T02:32:48.126Z,1013.74
2023-02-03T02:33:48.069Z,1013.77
2023-02-03T02:34:48.065Z,1013.68
2023-02-03T02:35:48.055Z,1013.64
2023-02-03T02:36:48.027Z,1013.57
2023-02-03T02:37:48.049Z,1013.60
2023-02-03T02:38:48.045Z,1013.53
2023-02-03T02:39:48.005Z,1013.49
2023-02-03T02:40:47.993Z,1013.51
2023-02-03T02:41:47.980Z,1013.42
2023-02-03T02:42:47.985Z,1013.37
2023-02-03T02:43:47.958Z,1013.29
2023-02-03T02:44:47.967Z,1013.26
2023-02-03T02:45:47.936Z,1013.25
2023-02-03T02:46:47.928Z,1013.28
2023-02-03T02:47:47.915Z,1013.24
2023-02-03T02:48:47.907Z,1013.29
2023-02-03T02:49:47.928Z,1013.23
2023-02-03T02:50:47.883Z,1013.24
2023-02-03T02:51:47.881Z,1013.20
2023-02-03T02:52:47.859Z,1013.15
2023-02-03T02:53:47.887Z,1013.15
2023-02-03T02:54:47.891Z,1013.14
2023-02-03T02:55:47.854Z,1013.15
2023-02-03T02:56:47.816Z,1013.04
2023-02-03T02:57:47.824Z,1013.03
2023-02-03T02:58:47.799Z,1013.04
2023-02-03T02:59:47.823Z,1012.95
2023-02-03T03:00:47.780Z,1012.99
2023-02-03T03:01:47.828Z,1012.90
2023-02-03T03:02:47.750Z,1012.87
2023-02-03T03:03:47.752Z,1012.83
2023-02-03T03:04:47.829Z,1012.82
2023-02-03T03:05:47.719Z,1012.83
2023-02-03T03:06:47.721Z,1012.83
2023-02-03T03:07:47.700Z,1012.87
2023-02-03T03:08:47.687Z,1012.75
2023-02-03T03:09:47.695Z,1012.84
2023-02-03T03:10:47.755Z,1012.83
2023-02-03T03:11:47.657Z,1012.79
2023-02-03T03:12:47.646Z,1012.79
2023-02-03T03:13:47.634Z,1012.78
2023-02-03T03:14:47.641Z,1012.67
2023-02-03T03:15:47.647Z,1012.65
2023-02-03T03:16:47.607Z,1012.65
2023-02-03T03:17:47.600Z,1012.64
2023-02-03T03:18:47.588Z,1012.53
2023-02-03T03:19:47.636Z,1012.46
2023-02-03T03:20:47.558Z,1012.42
2023-02-03T03:21:47.579Z,1012.36
2023-02-03T03:22:47.531Z,1012.28
2023-02-03T03:23:47.534Z,1012.27
2023-02-03T03:24:47.542Z,1012.26
2023-02-03T03:25:47.501Z,1012.27
2023-02-03T03:26:47.536Z,1012.31
2023-02-03T03:27:47.537Z,1012.21
2023-02-03T03:28:47.470Z,1012.23
2023-02-03T03:29:47.463Z,1012.18
2023-02-03T03:30:47.525Z,1012.15
2023-02-03T03:31:47.504Z,1012.08
2023-02-03T03:32:47.433Z,1012.15
2023-02-03T03:33:47.436Z,1012.08
2023-02-03T03:34:47.412Z,1012.06
2023-02-03T03:35:47.428Z,1012.10
2023-02-03T03:36:47.389Z,1012.07
2023-02-03T03:37:47.376Z,1012.14
2023-02-03T03:38:47.364Z,1012.12
2023-02-03T03:39:47.396Z,1012.06
2023-02-03T03:40:47.344Z,1012.06
2023-02-03T03:41:47.344Z,1012.01
2023-02-03T03:42:47.379Z,1012.05
2023-02-03T03:43:47.312Z,1011.85
2023-02-03T03:44:47.338Z,1011.82
2023-02-03T03:45:47.290Z,1011.77
2023-02-03T03:46:47.421Z,1011.78
2023-02-03T03:47:47.267Z,1011.77
2023-02-03T03:48:47.257Z,1011.83
2023-02-03T03:49:47.249Z,1011.82
2023-02-03T03:50:47.255Z,1011.97
2023-02-03T03:51:47.266Z,1011.98
2023-02-03T03:52:47.219Z,1012.00
2023-02-03T03:53:47.204Z,1012.02
2023-02-03T03:54:47.188Z,1011.99
2023-02-03T03:55:47.186Z,1011.96
2023-02-03T03:56:47.198Z,1011.80
2023-02-03T03:57:47.159Z,1011.63
2023-02-03T03:58:47.166Z,1011.62
2023-02-03T03:59:47.147Z,1011.62
2023-02-03T04:00:47.152Z,1011.66
2023-02-03T04:01:47.245Z,1011.65
2023-02-03T04:02:47.273Z,1011.47
2023-02-03T04:03:47.097Z,1011.78
2023-02-03T04:04:47.085Z,1011.95
2023-02-03T04:05:47.086Z,1011.79
2023-02-03T04:06:47.083Z,1011.84
2023-02-03T04:07:47.087Z,1011.71
2023-02-03T04:08:47.046Z,1011.72
2023-02-03T04:09:47.042Z,1011.69
2023-02-03T04:10:47.028Z,1011.58
2023-02-03T04:11:47.014Z,1011.54
2023-02-03T04:12:47.009Z,1011.50
2023-02-03T04:13:47.020Z,1011.56
2023-02-03T04:14:46.997Z,1011.45
2023-02-03T04:15:47.066Z,1011.52
2023-02-03T04:16:46.960Z,1011.40
2023-02-03T04:17:46.974Z,1011.35
2023-02-03T04:18:46.933Z,1011.20
2023-02-03T04:19:46.950Z,1011.21
2023-02-03T04:20:46.914Z,1011.12
2023-02-03T04:21:46.907Z,1011.16
2023-02-03T04:22:46.890Z,1011.07
2023-02-03T04:23:46.920Z,1011.04
2023-02-03T04:24:46.881Z,1011.04
2023-02-03T04:25:46.892Z,1011.08
2023-02-03T04:26:46.846Z,1011.07
2023-02-03T04:27:46.901Z,1011.03
2023-02-03T04:28:46.859Z,1011.05
2023-02-03T04:29:46.823Z,1011.10
2023-02-03T04:30:46.897Z,1011.05
2023-02-03T04:31:46.864Z,1011.09
2023-02-03T04:32:46.783Z,1011.03
2023-02-03T04:33:46.809Z,1010.91
2023-02-03T04:34:46.791Z,1010.99
2023-02-03T04:35:46.758Z,1010.94
2023-02-03T04:36:46.747Z,1010.88
2023-02-03T04:37:46.747Z,1010.89
2023-02-03T04:38:46.760Z,1010.85
2023-02-03T04:39:46.715Z,1010.79
2023-02-03T04:40:46.743Z,1010.77
2023-02-03T04:41:46.694Z,1010.78
2023-02-03T04:42:46.684Z,1010.76
2023-02-03T04:43:46.698Z,1010.74
2023-02-03T04:44:46.660Z,1010.71
2023-02-03T04:45:46.697Z,1010.73
2023-02-03T04:46:46.689Z,1010.71
2023-02-03T04:47:46.622Z,1010.73
2023-02-03T04:48:46.635Z,1010.70
2023-02-03T04:49:46.628Z,1010.66
2023-02-03T04:50:46.602Z,1010.63
2023-02-03T04:51:46.609Z,1010.53
2023-02-03T04:52:46.582Z,1010.51
2023-02-03T04:53:46.565Z,1010.44
2023-02-03T04:54:46.559Z,1010.51
2023-02-03T04:55:46.545Z,1010.46
2023-02-03T04:56:46.552Z,1010.49
2023-02-03T04:57:46.517Z,1010.37
2023-02-03T04:58:46.521Z,1010.35
2023-02-03T04:59:46.518Z,1010.32
2023-02-03T05:00:46.538Z,1010.27
2023-02-03T05:01:46.504Z,1010.36
2023-02-03T05:02:46.494Z,1010.30
2023-02-03T05:03:46.484Z,1010.34
2023-02-03T05:04:46.496Z,1010.19
2023-02-03T05:05:46.435Z,1010.18
2023-02-03T05:06:46.457Z,1010.19
2023-02-03T05:07:46.416Z,1010.24
2023-02-03T05:08:46.412Z,1010.19
2023-02-03T05:09:46.421Z,1010.15
2023-02-03T05:10:46.388Z,1010.10
2023-02-03T05:11:46.379Z,1010.14
2023-02-03T05:12:46.373Z,1010.09
2023-02-03T05:13:46.347Z,1010.11
2023-02-03T05:14:46.366Z,1010.15
2023-02-03T05:15:46.337Z,1010.15
2023-02-03T05:16:46.620Z,1010.11
2023-02-03T05:17:46.312Z,1010.13
2023-02-03T05:18:46.330Z,1010.10
2023-02-03T05:19:46.322Z,1010.14
2023-02-03T05:20:46.280Z,1010.15
2023-02-03T05:21:46.267Z,1010.16
2023-02-03T05:22:46.257Z,1010.11
2023-02-03T05:23:46.253Z,1010.09
2023-02-03T05:24:46.243Z,1010.02
2023-02-03T05:25:46.253Z,1009.93
2023-02-03T05:26:46.246Z,1009.96
2023-02-03T05:27:46.258Z,1009.96
2023-02-03T05:28:46.195Z,1009.94
2023-02-03T05:29:46.180Z,1009.94
2023-02-03T05:30:46.180Z,1009.88
2023-02-03T05:31:46.267Z,1009.88
2023-02-03T05:32:46.187Z,1009.90
2023-02-03T05:33:46.138Z,1009.86
2023-02-03T05:34:46.154Z,1009.87
2023-02-03T05:35:46.116Z,1009.82
2023-02-03T05:36:46.110Z,1009.76
2023-02-03T05:37:46.132Z,1009.70
2023-02-03T05:38:46.088Z,1009.69
2023-02-03T05:39:46.076Z,1009.64
2023-02-03T05:40:46.073Z,1009.62
2023-02-03T05:41:46.050Z,1009.64
2023-02-03T05:42:46.076Z,1009.52
2023-02-03T05:43:46.028Z,1009.55
2023-02-03T05:44:46.026Z,1009.53
2023-02-03T05:45:46.068Z,1009.50
2023-02-03T05:46:46.005Z,1009.38
2023-02-03T05:47:46.019Z,1009.41
2023-02-03T05:48:45.983Z,1009.40
2023-02-03T05:49:45.973Z,1009.35
2023-02-03T05:50:45.977Z,1009.32
2023-02-03T05:51:45.964Z,1009.36
2023-02-03T05:52:45.936Z,1009.36
2023-02-03T05:53:45.945Z,1009.36
2023-02-03T05:54:45.953Z,1009.33
2023-02-03T05:55:45.899Z,1009.35
2023-02-03T05:56:45.888Z,1009.40
2023-02-03T05:57:45.880Z,1009.37
2023-02-03T05:58:45.893Z,1009.30
2023-02-03T05:59:45.856Z,1009.35
2023-02-03T06:00:45.850Z,1009.28
2023-02-03T06:01:45.834Z,1009.25
2023-02-03T06:02:45.823Z,1009.19
2023-02-03T06:03:46.516Z,1008.98
2023-02-03T06:04:45.832Z,1009.05
2023-02-03T06:05:45.789Z,1008.92
2023-02-03T06:06:45.804Z,1008.95
2023-02-03T06:07:45.788Z,1008.97
2023-02-03T06:08:45.765Z,1008.97
2023-02-03T06:09:45.742Z,1008.99
2023-02-03T06:10:45.775Z,1008.93
2023-02-03T06:11:45.729Z,1008.97
2023-02-03T06:12:45.719Z,1008.88
2023-02-03T06:13:45.696Z,1008.83
2023-02-03T06:14:45.712Z,1008.84
2023-02-03T06:15:45.680Z,1008.82
2023-02-03T06:16:45.731Z,1008.82
2023-02-03T06:17:45.681Z,1008.76
2023-02-03T06:18:45.647Z,1008.75
2023-02-03T06:19:45.642Z,1008.79
2023-02-03T06:20:45.746Z,1008.75
2023-02-03T06:21:45.682Z,1008.77
2023-02-03T06:22:45.698Z,1008.73
2023-02-03T06:23:45.597Z,1008.78
2023-02-03T06:24:45.584Z,1008.70
2023-02-03T06:25:45.561Z,1008.70
2023-02-03T06:26:45.561Z,1008.79
2023-02-03T06:27:45.666Z,1008.74
2023-02-03T06:28:45.549Z,1008.80
2023-02-03T06:29:45.524Z,1008.79
2023-02-03T06:30:45.659Z,1008.83
2023-02-03T06:31:45.689Z,1008.76
2023-02-03T06:32:45.509Z,1008.80
2023-02-03T06:33:45.511Z,1008.80
2023-02-03T06:34:45.465Z,1008.77
2023-02-03T06:35:45.459Z,1008.75
2023-02-03T06:36:45.446Z,1008.71
2023-02-03T06:37:45.437Z,1008.70
2023-02-03T06:38:45.468Z,1008.63
2023-02-03T06:39:45.409Z,1008.75
2023-02-03T06:40:45.411Z,1008.74
2023-02-03T06:41:45.391Z,1008.74
2023-02-03T06:42:45.378Z,1008.64
2023-02-03T06:43:45.397Z,1008.72
2023-02-03T06:44:45.360Z,1008.67
2023-02-03T06:45:45.395Z,1008.61
2023-02-03T06:46:45.356Z,1008.58
2023-02-03T06:47:45.327Z,1008.57
2023-02-03T06:48:45.335Z,1008.48
2023-02-03T06:49:45.312Z,1008.48
2023-02-03T06:50:48.229Z,1008.50
2023-02-03T06:51:45.283Z,1008.42
2023-02-03T06:52:45.273Z,1008.38
2023-02-03T06:53:45.287Z,1008.38
2023-02-03T06:54:45.273Z,1008.43
2023-02-03T06:55:45.230Z,1008.35
2023-02-03T06:56:45.228Z,1008.36
2023-02-03T06:57:45.219Z,1008.27
2023-02-03T06:58:45.223Z,1008.26
2023-02-03T06:59:45.192Z,1008.28
2023-02-03T07:00:45.191Z,1008.27
2023-02-03T07:01:45.226Z,1008.16
2023-02-03T07:02:45.251Z,1008.14
2023-02-03T07:03:45.204Z,1008.24
2023-02-03T07:04:45.186Z,1008.20
2023-02-03T07:05:45.131Z,1008.00
2023-02-03T07:06:45.125Z,1008.15
2023-02-03T07:07:45.102Z,1008.02
2023-02-03T07:08:45.105Z,1008.07
2023-02-03T07:09:45.109Z,1008.00
2023-02-03T07:10:45.093Z,1007.91
2023-02-03T07:11:45.069Z,1007.97
2023-02-03T07:12:45.087Z,1007.93
2023-02-03T07:13:45.046Z,1007.88
2023-02-03T07:14:45.040Z,1007.98
2023-02-03T07:15:45.067Z,1007.94
2023-02-03T07:16:45.021Z,1007.93
2023-02-03T07:17:45.039Z,1007.95
2023-02-03T07:18:47.957Z,1007.88
2023-02-03T07:19:46.105Z,1007.87
2023-02-03T07:20:44.961Z,1007.88
2023-02-03T07:21:44.953Z,1007.81
2023-02-03T07:22:44.941Z,1007.84
2023-02-03T07:23:44.955Z,1007.86
2023-02-03T07:24:44.920Z,1007.78
2023-02-03T07:25:44.911Z,1007.74
2023-02-03T07:26:44.919Z,1007.74
2023-02-03T07:27:44.908Z,1007.68
2023-02-03T07:28:44.907Z,1007.70
2023-02-03T07:29:44.860Z,1007.63
2023-02-03T07:30:44.895Z,1007.68
2023-02-03T07:31:45.043Z,1007.61
2023-02-03T07:32:44.835Z,1007.63
2023-02-03T07:33:44.833Z,1007.55
2023-02-03T07:34:44.814Z,1007.53
2023-02-03T07:35:44.796Z,1007.53
2023-02-03T07:36:44.824Z,1007.57
2023-02-03T07:37:44.772Z,1007.50
2023-02-03T07:38:44.762Z,1007.45
2023-02-03T07:39:44.746Z,1007.42
2023-02-03T07:40:44.742Z,1007.50
2023-02-03T07:41:44.753Z,1007.37
2023-02-03T07:42:44.751Z,1007.35
2023-02-03T07:43:44.706Z,1007.21
2023-02-03T07:44:44.722Z,1007.36
2023-02-03T07:45:44.684Z,1007.35
2023-02-03T07:46:44.863Z,1007.24
2023-02-03T07:47:44.677Z,1007.27
2023-02-03T07:48:44.652Z,1007.29
2023-02-03T07:49:44.644Z,1007.29
2023-02-03T07:50:44.629Z,1007.23
2023-02-03T07:51:44.620Z,1007.36
2023-02-03T07:52:44.624Z,1007.25
2023-02-03T07:53:44.593Z,1007.32
2023-02-03T07:54:44.608Z,1007.34
2023-02-03T07:55:44.571Z,1007.18
2023-02-03T07:56:44.595Z,1007.26
2023-02-03T07:57:44.572Z,1007.30
2023-02-03T07:58:44.565Z,1007.23
2023-02-03T07:59:44.530Z,1007.18
2023-02-03T08:00:44.520Z,1007.25
2023-02-03T08:01:44.604Z,1007.24
2023-02-03T08:02:44.499Z,1007.31
2023-02-03T08:03:44.492Z,1007.16
2023-02-03T08:04:44.530Z,1007.03
2023-02-03T08:05:44.471Z,1007.03
2023-02-03T08:06:44.487Z,1007.03
2023-02-03T08:07:44.441Z,1007.01
2023-02-03T08:08:44.432Z,1006.95
2023-02-03T08:09:44.428Z,1006.89
2023-02-03T08:10:44.421Z,1006.96
2023-02-03T08:11:44.424Z,1006.92
2023-02-03T08:12:45.437Z,1006.92
2023-02-03T08:13:44.377Z,1006.92
2023-02-03T08:14:44.393Z,1006.85
2023-02-03T08:15:44.351Z,1006.78
2023-02-03T08:16:44.376Z,1006.80
2023-02-03T08:17:44.435Z,1006.73
2023-02-03T08:18:44.323Z,1006.69
2023-02-03T08:19:44.308Z,1006.80
2023-02-03T08:20:44.307Z,1006.61
2023-02-03T08:21:44.313Z,1006.59
2023-02-03T08:22:44.308Z,1006.66
2023-02-03T08:23:44.281Z,1006.66
2023-02-03T08:24:44.256Z,1006.60
2023-02-03T08:25:44.248Z,1006.53
2023-02-03T08:26:44.234Z,1006.56
2023-02-03T08:27:44.294Z,1006.54
2023-02-03T08:28:44.243Z,1006.59
2023-02-03T08:29:44.228Z,1006.59
2023-02-03T08:30:44.241Z,1006.57
2023-02-03T08:31:44.343Z,1006.38
2023-02-03T08:32:44.171Z,1006.49
2023-02-03T08:33:44.191Z,1006.52
2023-02-03T08:34:44.151Z,1006.59
2023-02-03T08:35:44.145Z,1006.53
2023-02-03T08:36:44.130Z,1006.46
2023-02-03T08:37:44.116Z,1006.52
2023-02-03T08:38:44.133Z,1006.43
2023-02-03T08:39:44.097Z,1006.40
2023-02-03T08:40:44.089Z,1006.47
2023-02-03T08:41:44.074Z,1006.35
2023-02-03T08:42:44.070Z,1006.45
2023-02-03T08:43:44.074Z,1006.47
2023-02-03T08:44:44.061Z,1006.37
2023-02-03T08:45:44.138Z,1006.36
2023-02-03T08:46:44.080Z,1006.33
2023-02-03T08:47:44.034Z,1006.31
2023-02-03T08:48:44.030Z,1006.31
2023-02-03T08:49:43.984Z,1006.27
2023-02-03T08:50:43.977Z,1006.19
2023-02-03T08:51:44.908Z,1006.26
2023-02-03T08:52:43.985Z,1006.21
2023-02-03T08:53:43.940Z,1006.14
2023-02-03T08:54:43.934Z,1006.23
2023-02-03T08:55:43.919Z,1006.13
2023-02-03T08:56:43.906Z,1006.20
2023-02-03T08:57:43.928Z,1006.07
2023-02-03T08:58:43.886Z,1006.08
2023-02-03T08:59:43.896Z,1006.09
2023-02-03T09:00:43.924Z,1006.12
2023-02-03T09:01:43.858Z,1006.13
2023-02-03T09:02:43.863Z,1006.15
2023-02-03T09:03:43.855Z,1006.02
2023-02-03T09:04:43.878Z,1006.05
2023-02-03T09:05:43.817Z,1006.03
2023-02-03T09:06:43.820Z,1006.02
2023-02-03T09:07:43.830Z,1005.96
2023-02-03T09:08:43.844Z,1005.91
2023-02-03T09:09:43.808Z,1005.84
2023-02-03T09:10:43.764Z,1005.97
2023-02-03T09:11:43.749Z,1005.89
2023-02-03T09:12:43.741Z,1005.82
2023-02-03T09:13:43.760Z,1005.87
2023-02-03T09:14:43.712Z,1005.86
2023-02-03T09:15:43.703Z,1005.76
2023-02-03T09:16:43.776Z,1005.89
2023-02-03T09:17:43.679Z,1005.84
2023-02-03T09:18:43.726Z,1005.87
2023-02-03T09:19:43.715Z,1005.84
2023-02-03T09:20:43.644Z,1005.75
2023-02-03T09:21:47.907Z,1005.72
2023-02-03T09:22:43.627Z,1005.75
2023-02-03T09:23:43.619Z,1005.71
2023-02-03T09:24:43.644Z,1005.64
2023-02-03T09:25:46.711Z,1005.71
2023-02-03T09:26:43.609Z,1005.84
2023-02-03T09:27:43.619Z,1005.76
2023-02-03T09:28:43.564Z,1005.66
2023-02-03T09:29:43.556Z,1005.64
2023-02-03T09:30:43.591Z,1005.64
2023-02-03T09:31:43.640Z,1005.72
2023-02-03T09:32:43.539Z,1005.58
2023-02-03T09:33:43.515Z,1005.75
2023-02-03T09:34:43.521Z,1005.65
2023-02-03T09:35:43.511Z,1005.68
2023-02-03T09:36:43.485Z,1005.58
2023-02-03T09:37:43.494Z,1005.65
2023-02-03T09:38:43.450Z,1005.63
2023-02-03T09:39:43.442Z,1005.58
2023-02-03T09:40:43.451Z,1005.56
2023-02-03T09:41:43.421Z,1005.52
2023-02-03T09:42:43.428Z,1005.49
2023-02-03T09:43:43.402Z,1005.46
2023-02-03T09:44:43.403Z,1005.46
2023-02-03T09:45:43.405Z,1005.47
2023-02-03T09:46:43.386Z,1005.36
2023-02-03T09:47:43.407Z,1005.41
2023-02-03T09:48:43.344Z,1005.49
2023-02-03T09:49:43.328Z,1005.48
2023-02-03T09:50:43.367Z,1005.38
2023-02-03T09:51:43.314Z,1005.35
2023-02-03T09:52:43.301Z,1005.36
2023-02-03T09:53:43.288Z,1005.31
2023-02-03T09:54:43.278Z,1005.37
2023-02-03T09:55:43.313Z,1005.28
2023-02-03T09:56:43.260Z,1005.32
2023-02-03T09:57:43.253Z,1005.15
2023-02-03T09:58:43.257Z,1005.15
2023-02-03T09:59:43.237Z,1005.00
2023-02-03T10:00:43.214Z,1005.07
2023-02-03T10:01:43.257Z,1005.10
2023-02-03T10:02:43.280Z,1004.92
2023-02-03T10:03:43.201Z,1004.94
2023-02-03T10:04:43.171Z,1004.74
2023-02-03T10:05:43.252Z,1004.69
2023-02-03T10:06:43.165Z,1004.70
2023-02-03T10:07:43.146Z,1004.71
2023-02-03T10:08:43.126Z,1004.77
2023-02-03T10:09:43.136Z,1004.80
2023-02-03T10:10:43.103Z,1004.80
2023-02-03T10:11:43.096Z,1004.71
2023-02-03T10:12:43.081Z,1004.55
2023-02-03T10:13:43.072Z,1004.87
2023-02-03T10:14:43.089Z,1004.81
2023-02-03T10:15:43.055Z,1004.83
2023-02-03T10:16:43.098Z,1004.87
2023-02-03T10:17:43.032Z,1004.85
2023-02-03T10:18:43.016Z,1004.86
2023-02-03T10:19:43.041Z,1004.93
2023-02-03T10:20:43.034Z,1004.67
2023-02-03T10:21:42.983Z,1004.84
2023-02-03T10:22:43.016Z,1004.78
2023-02-03T10:23:42.979Z,1004.73
2023-02-03T10:24:42.950Z,1004.82
2023-02-03T10:25:43.007Z,1004.81
2023-02-03T10:26:42.949Z,1004.73
2023-02-03T10:27:42.952Z,1004.92
2023-02-03T10:28:42.916Z,1004.94
2023-02-03T10:29:42.943Z,1005.02
2023-02-03T10:30:43.018Z,1005.06
2023-02-03T10:31:43.035Z,1005.22
2023-02-03T10:32:42.866Z,1005.34
2023-02-03T10:33:42.848Z,1005.33
2023-02-03T10:34:42.840Z,1005.19
2023-02-03T10:35:42.883Z,1005.21
2023-02-03T10:36:42.814Z,1005.85
2023-02-03T10:37:42.818Z,1005.80
2023-02-03T10:38:42.815Z,1005.80
2023-02-03T10:39:42.800Z,1005.80
2023-02-03T10:40:42.886Z,1005.98
2023-02-03T10:41:42.765Z,1005.87
2023-02-03T10:42:42.753Z,1006.18
2023-02-03T10:43:42.775Z,1006.00
2023-02-03T10:44:42.735Z,1005.98
2023-02-03T10:45:42.741Z,1006.26
2023-02-03T10:46:42.762Z,1006.28
2023-02-03T10:47:42.711Z,1005.92
2023-02-03T10:48:42.704Z,1005.83
2023-02-03T10:49:43.515Z,1005.96
2023-02-03T10:50:42.690Z,1005.79
2023-02-03T10:51:42.654Z,1005.86
2023-02-03T10:52:42.634Z,1005.78
2023-02-03T10:53:42.663Z,1005.66
2023-02-03T10:54:42.725Z,1005.69
2023-02-03T10:55:42.641Z,1005.69
2023-02-03T10:56:42.605Z,1005.70
2023-02-03T10:57:42.587Z,1005.58
2023-02-03T10:58:42.583Z,1005.61
2023-02-03T10:59:42.599Z,1005.53
2023-02-03T11:00:42.551Z,1005.59
2023-02-03T11:01:42.696Z,1005.53
2023-02-03T11:02:42.550Z,1005.64
2023-02-03T11:03:42.523Z,1005.61
2023-02-03T11:04:42.508Z,1005.60
2023-02-03T11:05:43.492Z,1005.62
2023-02-03T11:06:42.507Z,1005.78
2023-02-03T11:07:42.475Z,1005.49
2023-02-03T11:08:42.460Z,1005.60
2023-02-03T11:09:42.451Z,1005.61
2023-02-03T11:10:42.463Z,1005.52
2023-02-03T11:11:42.459Z,1005.47
2023-02-03T11:12:42.421Z,1005.39
2023-02-03T11:13:42.408Z,1005.43
2023-02-03T11:14:42.400Z,1005.30
2023-02-03T11:15:42.431Z,1005.59
2023-02-03T11:16:44.427Z,1005.54
2023-02-03T11:17:42.391Z,1005.44
2023-02-03T11:18:42.363Z,1005.41
2023-02-03T11:19:42.340Z,1005.38
2023-02-03T11:20:42.327Z,1005.43
2023-02-03T11:21:42.355Z,1005.38
2023-02-03T11:22:42.311Z,1005.39
2023-02-03T11:23:42.302Z,1005.40
2023-02-03T11:24:42.284Z,1005.45
2023-02-03T11:25:42.290Z,1005.42
2023-02-03T11:26:42.314Z,1005.48
2023-02-03T11:27:42.284Z,1005.46
2023-02-03T11:28:42.242Z,1005.50
2023-02-03T11:29:42.244Z,1005.52
2023-02-03T11:30:42.243Z,1005.44
2023-02-03T11:31:42.511Z,1005.40
2023-02-03T11:32:42.201Z,1005.48
2023-02-03T11:33:42.188Z,1005.40
2023-02-03T11:34:42.180Z,1005.36
2023-02-03T11:35:42.179Z,1005.39
2023-02-03T11:36:42.185Z,1005.47
2023-02-03T11:37:42.180Z,1005.55
2023-02-03T11:38:42.144Z,1005.58
2023-02-03T11:39:42.137Z,1005.54
2023-02-03T11:40:42.116Z,1005.46
2023-02-03T11:41:42.101Z,1005.54
2023-02-03T11:42:42.140Z,1005.57
2023-02-03T11:43:42.087Z,1005.47
2023-02-03T11:44:42.071Z,1005.58
2023-02-03T11:45:42.147Z,1005.56
2023-02-03T11:46:42.113Z,1005.61
2023-02-03T11:47:42.075Z,1005.56
2023-02-03T11:48:42.021Z,1005.51
2023-02-03T11:49:42.013Z,1005.47
2023-02-03T11:50:42.007Z,1005.60
2023-02-03T11:51:41.992Z,1005.52
2023-02-03T11:52:41.979Z,1005.46
2023-02-03T11:53:55.208Z,1005.45
2023-02-03T11:54:42.973Z,1005.46
2023-02-03T11:55:41.954Z,1005.49
2023-02-03T11:56:41.937Z,1005.45
2023-02-03T11:57:41.956Z,1005.54
2023-02-03T11:58:41.958Z,1005.51
2023-02-03T11:59:41.909Z,1005.49
2023-02-03T12:00:41.892Z,1005.54
2023-02-03T12:01:41.891Z,1005.48
2023-02-03T12:02:41.963Z,1005.49
2023-02-03T12:03:41.893Z,1005.63
2023-02-03T12:04:41.915Z,1005.53
2023-02-03T12:05:41.860Z,1005.63